Time;durP1;ratioP1;P1;durP2;ratioP2;P2;SDS_P1;SDS_P2;PMS_P1;PMS_P2;Temp;Humidity;BMP_temperature;BMP_pressure;BME280_temperature;BME280_humidity;BME280_pressure;Samples;Min_cycle;Max_cycle;Signal;HPM_P1;HPM_P2
2021/12/25 00:00:09;;;;;;;2.75;1.83;;;22.60;39.10;;;;;;5045613;28;20864;-71
2021/12/25 00:02:35;;;;;;;2.80;2.10;;;22.60;39.00;;;;;;5059992;28;20427;-70
2021/12/25 00:05:02;;;;;;;4.43;2.00;;;22.60;39.10;;;;;;5048628;28;20425;-70
2021/12/25 00:07:27;;;;;;;4.13;1.92;;;22.60;39.10;;;;;;5070786;28;20884;-71
2021/12/25 00:09:53;;;;;;;3.70;2.13;;;22.60;38.90;;;;;;5070835;28;20383;-70
2021/12/25 00:12:19;;;;;;;3.30;2.05;;;22.60;38.90;;;;;;5052789;28;20518;-70
2021/12/25 00:14:45;;;;;;;4.72;2.13;;;22.60;38.80;;;;;;5070476;28;20457;-70
2021/12/25 00:17:10;;;;;;;4.50;2.03;;;22.70;38.70;;;;;;5062261;28;20415;-70
2021/12/25 00:19:36;;;;;;;3.78;2.00;;;22.60;38.50;;;;;;5069951;28;20369;-70
2021/12/25 00:22:02;;;;;;;4.30;2.10;;;22.60;39.10;;;;;;5071845;28;20759;-72
2021/12/25 00:24:28;;;;;;;4.25;2.25;;;22.70;38.50;;;;;;5052370;28;20453;-70
2021/12/25 00:27:01;;;;;;;2.92;1.90;;;22.70;38.50;;;;;;5071674;28;20396;-71
2021/12/25 00:32:32;;;;;;;3.55;1.88;;;22.70;38.20;;;;;;5071565;28;20403;-70
2021/12/25 00:34:57;;;;;;;3.40;1.80;;;22.70;38.10;;;;;;5071588;28;20879;-71
2021/12/25 00:37:23;;;;;;;3.97;2.03;;;22.70;38.20;;;;;;5071402;28;20411;-70
2021/12/25 00:39:50;;;;;;;3.25;1.90;;;22.70;38.00;;;;;;5071403;28;20474;-74
2021/12/25 00:42:16;;;;;;;2.67;1.80;;;22.70;38.20;;;;;;5071365;28;20408;-70
2021/12/25 00:44:42;;;;;;;3.30;1.70;;;22.70;38.10;;;;;;5071182;28;20387;-70
2021/12/25 00:47:08;;;;;;;2.90;1.70;;;22.70;38.00;;;;;;5053323;28;20748;-70
2021/12/25 00:49:34;;;;;;;3.67;1.70;;;22.70;38.10;;;;;;5071384;28;20387;-71
2021/12/25 00:51:59;;;;;;;3.80;1.90;;;22.70;37.90;;;;;;5073188;28;20376;-70
2021/12/25 00:54:26;;;;;;;3.47;1.55;;;22.70;38.10;;;;;;5075276;28;20395;-70
2021/12/25 00:56:52;;;;;;;2.67;1.55;;;22.70;37.90;;;;;;5075124;28;20861;-70
2021/12/25 00:59:18;;;;;;;2.45;1.50;;;22.70;37.90;;;;;;5057581;28;20422;-70
2021/12/25 01:01:44;;;;;;;2.17;1.55;;;22.70;37.80;;;;;;5075973;28;20441;-71
2021/12/25 01:04:10;;;;;;;3.25;1.60;;;22.70;37.80;;;;;;5076230;28;20396;-70
2021/12/25 01:06:36;;;;;;;2.57;1.50;;;22.60;37.80;;;;;;5074591;28;20910;-70
2021/12/25 01:09:02;;;;;;;2.67;1.60;;;22.70;38.30;;;;;;5074799;28;20390;-70
2021/12/25 01:11:30;;;;;;;2.72;1.63;;;22.60;37.80;;;;;;5075470;28;20384;-70
2021/12/25 01:14:13;;;;;;;2.30;1.40;;;22.60;37.90;;;;;;5075253;28;20392;-70
2021/12/25 01:37:38;;;;;;;2.33;1.30;;;22.70;37.60;;;;;;5075130;28;20414;-71
2021/12/25 01:48:23;;;;;;;2.25;1.27;;;22.60;37.50;;;;;;5074608;28;20433;-70
2021/12/25 01:50:49;;;;;;;1.45;1.17;;;22.60;37.40;;;;;;5075025;28;20395;-71
2021/12/25 01:53:15;;;;;;;2.90;1.40;;;22.60;37.40;;;;;;5056766;28;20883;-70
2021/12/25 01:55:41;;;;;;;1.88;1.20;;;22.60;37.40;;;;;;5074914;28;20395;-71
2021/12/25 01:58:07;;;;;;;2.05;1.35;;;22.60;37.40;;;;;;5056705;28;20418;-71
2021/12/25 02:00:39;;;;;;;1.70;1.15;;;22.60;37.40;;;;;;5074520;28;20868;-70
2021/12/25 02:03:08;;;;;;;1.60;1.00;;;22.60;37.40;;;;;;5073349;28;20388;-70
2021/12/25 02:05:33;;;;;;;1.60;1.10;;;22.60;37.30;;;;;;5074736;28;20446;-70
2021/12/25 02:07:59;;;;;;;2.28;1.30;;;22.60;37.30;;;;;;5074102;28;20884;-70
2021/12/25 02:10:25;;;;;;;1.60;1.10;;;22.60;37.20;;;;;;5073799;28;20388;-70
2021/12/25 02:12:51;;;;;;;1.48;1.10;;;22.60;37.20;;;;;;5073894;28;20395;-70
2021/12/25 02:15:20;;;;;;;2.40;1.17;;;22.50;37.10;;;;;;5074444;28;20437;-70
2021/12/25 02:20:29;;;;;;;1.42;1.08;;;22.50;37.30;;;;;;5073897;28;20403;-70
2021/12/25 02:23:00;;;;;;;1.50;1.08;;;22.50;37.10;;;;;;5073733;28;20773;-70
2021/12/25 02:25:27;;;;;;;1.63;1.02;;;22.50;37.10;;;;;;5055686;28;20441;-70
2021/12/25 02:27:53;;;;;;;1.73;1.20;;;22.50;37.20;;;;;;5055463;28;20388;-71
2021/12/25 02:30:19;;;;;;;1.38;1.00;;;22.50;37.20;;;;;;5073824;28;20395;-70
2021/12/25 02:32:45;;;;;;;1.48;1.00;;;22.50;37.30;;;;;;5055224;28;20402;-71
2021/12/25 02:35:13;;;;;;;1.60;1.10;;;22.40;37.20;;;;;;5055713;28;20478;-70
2021/12/25 02:37:40;;;;;;;1.70;1.10;;;22.40;37.30;;;;;;5055429;28;20768;-70
2021/12/25 02:40:07;;;;;;;2.05;1.10;;;22.50;37.30;;;;;;5056004;28;20380;-70
2021/12/25 02:42:35;;;;;;;1.60;1.20;;;22.50;37.40;;;;;;5055176;28;20423;-71
2021/12/25 02:45:01;;;;;;;1.38;1.00;;;22.50;37.30;;;;;;5073376;28;20388;-70
2021/12/25 02:47:30;;;;;;;1.80;1.00;;;22.50;37.30;;;;;;5073285;28;20739;-70
2021/12/25 02:49:56;;;;;;;1.90;1.10;;;22.50;37.30;;;;;;5073471;28;20388;-70
2021/12/25 02:52:22;;;;;;;1.73;1.00;;;22.40;37.20;;;;;;5055338;28;20956;-71
2021/12/25 02:54:48;;;;;;;1.38;0.90;;;22.50;37.30;;;;;;5072687;28;20396;-70
2021/12/25 02:57:15;;;;;;;1.40;0.90;;;22.50;37.00;;;;;;5055289;28;20486;-69
2021/12/25 02:59:41;;;;;;;1.70;1.10;;;22.40;37.10;;;;;;5073115;28;20387;-69
2021/12/25 03:02:12;;;;;;;1.92;1.02;;;22.40;37.00;;;;;;5073058;28;20453;-70
2021/12/25 03:04:43;;;;;;;1.70;1.10;;;22.40;37.10;;;;;;5055130;28;20395;-69
2021/12/25 03:07:09;;;;;;;1.20;0.80;;;22.40;37.10;;;;;;5073160;28;20396;-69
2021/12/25 03:09:35;;;;;;;1.45;0.93;;;22.40;37.00;;;;;;5072950;28;20387;-69
2021/12/25 03:12:07;;;;;;;1.50;0.90;;;22.40;37.10;;;;;;5072909;28;20471;-69
2021/12/25 03:15:01;;;;;;;2.40;1.00;;;22.40;37.20;;;;;;5072461;28;20514;-68
2021/12/25 03:17:27;;;;;;;1.70;0.90;;;22.30;37.20;;;;;;5072490;28;20423;-68
2021/12/25 03:19:55;;;;;;;1.20;0.80;;;22.30;37.10;;;;;;5072809;28;20423;-68
2021/12/25 03:22:20;;;;;;;1.80;1.20;;;22.30;37.10;;;;;;5072669;28;20411;-69
2021/12/25 03:24:46;;;;;;;1.55;1.00;;;22.30;37.20;;;;;;5072166;28;20420;-68
2021/12/25 03:27:11;;;;;;;1.67;0.90;;;22.30;37.20;;;;;;5072601;28;20426;-70
2021/12/25 03:29:40;;;;;;;1.10;0.87;;;22.30;37.10;;;;;;5072602;28;20478;-70
2021/12/25 03:32:06;;;;;;;1.73;0.98;;;22.30;37.20;;;;;;5072532;28;20390;-69
2021/12/25 03:34:32;;;;;;;2.05;0.85;;;22.30;37.10;;;;;;5072191;28;20388;-69
2021/12/25 03:36:59;;;;;;;1.50;0.97;;;22.20;37.10;;;;;;5072099;28;20412;-69
2021/12/25 03:39:25;;;;;;;1.20;0.90;;;22.20;37.10;;;;;;5072945;28;20459;-69
2021/12/25 03:41:50;;;;;;;1.20;0.90;;;22.30;37.10;;;;;;5072278;28;20479;-69
2021/12/25 03:44:16;;;;;;;1.40;0.95;;;22.30;37.10;;;;;;5051235;28;20414;-69
2021/12/25 03:46:42;;;;;;;1.00;0.80;;;22.30;37.10;;;;;;5050533;28;20780;-69
2021/12/25 03:49:24;;;;;;;1.23;0.80;;;22.20;37.00;;;;;;5052689;28;20481;-70
2021/12/25 04:00:06;;;;;;;1.30;0.70;;;22.20;36.90;;;;;;5052300;28;20454;-70
2021/12/25 04:02:38;;;;;;;1.20;0.82;;;22.20;36.90;;;;;;5052220;28;20381;-69
2021/12/25 04:05:07;;;;;;;1.40;0.90;;;22.20;36.90;;;;;;5051777;28;20869;-69
2021/12/25 04:08:07;;;;;;;1.58;0.90;;;22.20;36.90;;;;;;5052326;28;20393;-69
2021/12/25 04:10:24;;;;;;;1.30;0.90;;;22.20;37.00;;;;;;5050968;28;20386;-70
2021/12/25 04:12:50;;;;;;;2.28;0.93;;;22.20;36.90;;;;;;5051001;28;20389;-69
2021/12/25 04:15:16;;;;;;;1.20;0.90;;;22.20;36.90;;;;;;5051507;28;20885;-69
2021/12/25 04:17:41;;;;;;;1.10;0.80;;;22.20;36.90;;;;;;5051655;28;20408;-69
2021/12/25 04:20:08;;;;;;;1.25;0.80;;;22.20;36.80;;;;;;5051982;28;20758;-69
2021/12/25 04:22:45;;;;;;;1.02;0.70;;;22.20;36.80;;;;;;5050190;28;20392;-69
2021/12/25 04:25:11;;;;;;;1.48;0.93;;;22.20;36.80;;;;;;5051659;28;20455;-69
2021/12/25 04:27:38;;;;;;;1.10;0.80;;;22.20;36.80;;;;;;5051161;28;20467;-69
2021/12/25 04:30:18;;;;;;;1.17;0.80;;;22.20;36.80;;;;;;5050343;28;20396;-69
2021/12/25 04:33:23;;;;;;;1.52;0.85;;;22.20;36.70;;;;;;5051169;28;20385;-69
2021/12/25 05:02:57;;;;;;;1.10;0.80;;;22.20;36.50;;;;;;5071619;28;20501;-69
2021/12/25 05:05:23;;;;;;;1.27;0.70;;;22.10;36.40;;;;;;5071229;28;20864;-68
2021/12/25 05:07:49;;;;;;;1.33;0.82;;;22.10;36.50;;;;;;5071243;28;20380;-68
2021/12/25 05:10:15;;;;;;;1.23;0.80;;;22.10;36.50;;;;;;5053131;28;20439;-69
2021/12/25 05:12:40;;;;;;;1.55;0.70;;;22.10;36.60;;;;;;5052777;28;20394;-69
2021/12/25 05:15:07;;;;;;;1.00;0.70;;;22.10;36.60;;;;;;5053107;28;20959;-69
2021/12/25 05:17:32;;;;;;;1.20;0.80;;;22.10;36.50;;;;;;5052943;28;20976;-70
2021/12/25 05:19:59;;;;;;;1.38;0.70;;;22.10;36.50;;;;;;5071350;28;20427;-69
2021/12/25 05:22:25;;;;;;;1.58;0.90;;;22.10;36.50;;;;;;5071075;28;20380;-69
2021/12/25 05:24:51;;;;;;;1.20;0.80;;;22.10;36.50;;;;;;5070637;28;20878;-69
2021/12/25 05:27:18;;;;;;;1.60;0.80;;;22.10;36.50;;;;;;5053051;28;20918;-69
2021/12/25 05:29:46;;;;;;;1.02;0.70;;;22.10;36.40;;;;;;5070743;28;20384;-69
2021/12/25 05:32:13;;;;;;;1.27;0.80;;;22.10;36.40;;;;;;5070556;28;20399;-70
2021/12/25 05:34:39;;;;;;;1.00;0.73;;;22.10;36.40;;;;;;5070715;28;20966;-69
2021/12/25 05:37:05;;;;;;;1.43;0.80;;;22.10;36.40;;;;;;5070886;28;20486;-69
2021/12/25 05:39:30;;;;;;;1.50;0.70;;;22.00;36.30;;;;;;5073871;28;20426;-68
2021/12/25 05:41:58;;;;;;;1.00;0.77;;;22.00;36.40;;;;;;5074502;28;20377;-68
2021/12/25 05:44:25;;;;;;;1.13;0.85;;;22.00;36.40;;;;;;5074640;28;20411;-68
2021/12/25 05:46:50;;;;;;;1.25;0.80;;;22.00;36.40;;;;;;5074102;28;20388;-68
2021/12/25 05:49:16;;;;;;;1.20;0.70;;;22.00;36.30;;;;;;5074560;28;20396;-69
2021/12/25 05:51:42;;;;;;;1.20;0.70;;;22.00;36.40;;;;;;5074468;28;20421;-69
2021/12/25 05:54:08;;;;;;;1.70;0.77;;;21.90;36.30;;;;;;5074441;28;20403;-68
2021/12/25 05:56:33;;;;;;;1.20;0.90;;;21.90;36.30;;;;;;5074355;28;20390;-69
2021/12/25 05:58:59;;;;;;;1.13;0.80;;;21.90;36.30;;;;;;5074013;28;20420;-68
2021/12/25 06:01:25;;;;;;;1.10;0.83;;;21.90;36.40;;;;;;5074237;28;20384;-68
2021/12/25 06:03:51;;;;;;;1.27;0.90;;;21.90;36.30;;;;;;5074377;28;20395;-69
2021/12/25 06:06:16;;;;;;;1.20;0.77;;;21.90;36.20;;;;;;5056420;28;20392;-69
2021/12/25 06:08:42;;;;;;;1.10;0.90;;;21.90;36.20;;;;;;5056314;28;20402;-69
2021/12/25 06:11:08;;;;;;;1.10;0.80;;;22.00;36.20;;;;;;5073972;28;20798;-69
2021/12/25 06:13:43;;;;;;;1.10;0.68;;;21.90;36.10;;;;;;5056144;28;20498;-69
2021/12/25 06:16:08;;;;;;;1.15;0.80;;;21.90;36.10;;;;;;5056135;28;20422;-69
2021/12/25 06:18:34;;;;;;;1.33;0.82;;;21.90;36.00;;;;;;5055904;28;20408;-70
2021/12/25 06:21:00;;;;;;;1.23;0.90;;;21.90;36.10;;;;;;5055565;28;20438;-69
2021/12/25 06:23:26;;;;;;;1.58;0.88;;;21.90;36.10;;;;;;5055741;28;20388;-70
2021/12/25 06:25:52;;;;;;;1.15;0.80;;;21.90;36.10;;;;;;5073863;28;20441;-69
2021/12/25 06:28:18;;;;;;;1.00;0.80;;;21.90;36.10;;;;;;5056169;28;20454;-69
2021/12/25 06:30:45;;;;;;;1.27;0.80;;;21.90;36.10;;;;;;5073698;28;20419;-69
2021/12/25 06:33:11;;;;;;;1.30;0.80;;;21.90;36.10;;;;;;5073592;28;20453;-69
2021/12/25 06:35:37;;;;;;;1.60;0.75;;;21.90;36.10;;;;;;5056044;28;20380;-69
2021/12/25 06:38:02;;;;;;;1.30;0.80;;;21.90;36.10;;;;;;5055422;28;20784;-69
2021/12/25 06:40:28;;;;;;;1.27;0.80;;;21.90;36.10;;;;;;5073613;28;20781;-68
2021/12/25 06:42:54;;;;;;;1.38;0.80;;;21.90;36.20;;;;;;5072978;28;20408;-69
2021/12/25 06:45:19;;;;;;;1.47;0.80;;;21.90;36.10;;;;;;5055642;28;20390;-70
2021/12/25 06:47:45;;;;;;;1.27;0.80;;;21.90;36.10;;;;;;5073206;28;20482;-69
2021/12/25 06:50:11;;;;;;;1.50;0.80;;;21.80;36.00;;;;;;5073346;28;20788;-69
2021/12/25 06:52:37;;;;;;;1.27;0.90;;;21.90;36.10;;;;;;5072746;28;20760;-70
2021/12/25 06:55:05;;;;;;;1.20;0.85;;;21.90;36.00;;;;;;5072807;28;20382;-69
2021/12/25 06:57:31;;;;;;;1.30;0.90;;;21.90;36.00;;;;;;5056280;28;20408;-69
2021/12/25 06:59:57;;;;;;;1.20;0.90;;;21.90;36.00;;;;;;5055995;28;20725;-69
2021/12/25 07:02:22;;;;;;;1.60;1.00;;;21.80;35.90;;;;;;5055207;28;20983;-69
2021/12/25 07:04:48;;;;;;;1.45;0.95;;;21.90;35.90;;;;;;5055516;28;20740;-69
2021/12/25 07:07:16;;;;;;;1.25;0.95;;;21.90;36.00;;;;;;5074158;28;20951;-69
2021/12/25 07:09:41;;;;;;;1.52;0.90;;;21.90;35.90;;;;;;5054978;28;20392;-69
2021/12/25 07:12:08;;;;;;;1.20;0.80;;;21.80;36.00;;;;;;5073282;28;20394;-69
2021/12/25 07:14:33;;;;;;;1.38;1.00;;;21.80;35.90;;;;;;5054932;28;20387;-69
2021/12/25 07:16:59;;;;;;;1.30;0.95;;;21.80;36.00;;;;;;5072708;28;20464;-69
2021/12/25 07:19:24;;;;;;;1.30;0.95;;;21.80;35.90;;;;;;5073023;28;20434;-69
2021/12/25 07:21:50;;;;;;;1.70;1.00;;;21.80;35.90;;;;;;5073213;28;20380;-69
2021/12/25 07:24:16;;;;;;;2.05;1.02;;;21.90;36.40;;;;;;5072701;28;20399;-71
2021/12/25 07:26:42;;;;;;;3.37;1.00;;;21.90;35.90;;;;;;5072323;28;20384;-71
2021/12/25 07:29:08;;;;;;;2.30;1.38;;;21.90;35.60;;;;;;5072348;28;20391;-71
2021/12/25 07:31:34;;;;;;;3.83;1.45;;;21.80;35.00;;;;;;5072440;28;20380;-72
2021/12/25 07:34:02;;;;;;;3.00;1.58;;;21.80;35.90;;;;;;5072905;28;20383;-72
2021/12/25 07:36:27;;;;;;;3.72;1.67;;;21.80;35.80;;;;;;5054553;28;20919;-71
2021/12/25 07:38:54;;;;;;;4.20;1.50;;;21.70;36.20;;;;;;5071877;28;20456;-71
2021/12/25 07:41:20;;;;;;;4.22;1.40;;;21.70;36.40;;;;;;5072536;28;20391;-70
2021/12/25 07:43:45;;;;;;;2.42;1.25;;;21.70;36.80;;;;;;5072235;28;20507;-70
2021/12/25 07:46:11;;;;;;;2.80;1.40;;;21.70;36.90;;;;;;5072280;28;20392;-71
2021/12/25 07:48:37;;;;;;;2.47;1.45;;;21.70;36.40;;;;;;5072206;28;20396;-72
2021/12/25 07:51:03;;;;;;;5.35;1.60;;;21.70;36.50;;;;;;5071727;28;20402;-70
2021/12/25 07:53:32;;;;;;;2.40;1.50;;;21.70;36.60;;;;;;5072093;28;20467;-70
2021/12/25 07:55:58;;;;;;;2.20;1.55;;;21.60;36.90;;;;;;5072126;28;20793;-71
2021/12/25 07:58:23;;;;;;;2.72;1.30;;;21.60;36.70;;;;;;5072001;28;20416;-71
2021/12/25 08:00:50;;;;;;;2.38;1.67;;;21.70;36.90;;;;;;5071420;28;20886;-71
2021/12/25 08:03:16;;;;;;;4.95;1.50;;;21.70;37.60;;;;;;5072013;28;20388;-71
2021/12/25 08:05:42;;;;;;;3.43;1.73;;;21.70;37.30;;;;;;5054399;28;20857;-71
2021/12/25 08:08:10;;;;;;;4.75;1.50;;;21.70;37.20;;;;;;5053815;28;20387;-70
2021/12/25 08:10:36;;;;;;;3.42;1.60;;;21.70;37.40;;;;;;5072344;28;20388;-70
2021/12/25 08:13:02;;;;;;;2.40;1.40;;;21.70;37.10;;;;;;5071371;28;20391;-72
2021/12/25 08:15:30;;;;;;;2.30;1.45;;;21.70;36.90;;;;;;5072336;28;20384;-70
2021/12/25 08:17:58;;;;;;;2.33;1.50;;;21.70;36.90;;;;;;5071769;28;20422;-72
2021/12/25 08:20:25;;;;;;;1.90;1.42;;;21.70;36.90;;;;;;5072225;28;20475;-71
2021/12/25 08:22:51;;;;;;;2.67;1.37;;;21.60;36.90;;;;;;5053868;28;20780;-70
2021/12/25 08:25:17;;;;;;;4.00;1.40;;;21.60;36.90;;;;;;5071883;28;20416;-72
2021/12/25 08:27:44;;;;;;;2.72;1.50;;;21.60;37.00;;;;;;5071730;28;20383;-72
2021/12/25 08:30:14;;;;;;;4.10;1.80;;;21.60;37.50;;;;;;5071466;28;20419;-79
2021/12/25 08:32:42;;;;;;;3.30;1.42;;;21.60;37.50;;;;;;5053536;28;20391;-71
2021/12/25 08:35:12;;;;;;;3.10;1.50;;;21.60;37.10;;;;;;5071278;28;20868;-71
2021/12/25 08:37:38;;;;;;;2.90;1.30;;;21.60;37.10;;;;;;5071344;28;20399;-71
2021/12/25 08:40:05;;;;;;;2.40;1.38;;;21.60;37.20;;;;;;5054465;28;20391;-71
2021/12/25 08:42:31;;;;;;;4.03;1.60;;;21.60;37.10;;;;;;5049984;28;20487;-71
2021/12/25 08:47:27;;;;;;;2.88;1.60;;;21.60;37.30;;;;;;5051545;28;20411;-70
2021/12/25 08:49:54;;;;;;;2.40;1.40;;;21.60;37.40;;;;;;5051325;28;20866;-70
2021/12/25 08:52:21;;;;;;;2.92;1.42;;;21.60;38.00;;;;;;5051387;28;20381;-71
2021/12/25 08:54:50;;;;;;;2.58;1.40;;;21.70;37.90;;;;;;5051722;28;20393;-70
2021/12/25 08:57:20;;;;;;;2.55;1.30;;;21.70;37.80;;;;;;5050921;28;20480;-70
2021/12/25 08:59:47;;;;;;;3.03;1.48;;;21.80;37.50;;;;;;5050915;28;20393;-72
2021/12/25 09:02:16;;;;;;;2.85;1.50;;;21.70;37.30;;;;;;5051364;28;20377;-70
2021/12/25 09:04:44;;;;;;;1.95;1.20;;;21.70;37.00;;;;;;5051462;28;20397;-71
2021/12/25 09:07:10;;;;;;;2.30;1.50;;;21.80;37.20;;;;;;5051013;28;20411;-71
2021/12/25 09:09:36;;;;;;;3.72;1.60;;;21.80;36.90;;;;;;5050004;28;20381;-69
2021/12/25 09:12:04;;;;;;;3.22;1.20;;;21.80;36.90;;;;;;5051509;28;20871;-79
2021/12/25 09:14:30;;;;;;;3.70;1.30;;;21.70;37.20;;;;;;5051014;28;20426;-71
2021/12/25 09:16:56;;;;;;;3.65;1.30;;;21.70;37.70;;;;;;5034588;28;20990;-69
2021/12/25 09:19:22;;;;;;;2.80;1.30;;;21.80;37.30;;;;;;5035006;28;20485;-71
2021/12/25 09:21:47;;;;;;;3.30;1.88;;;21.80;37.30;;;;;;5035271;28;20375;-70
2021/12/25 09:24:15;;;;;;;2.83;2.10;;;21.70;37.60;;;;;;5034881;28;20449;-74
2021/12/25 09:26:41;;;;;;;3.78;1.70;;;21.80;38.40;;;;;;5050304;28;20412;-70
2021/12/25 09:29:07;;;;;;;2.43;1.70;;;21.80;37.70;;;;;;5054551;28;20455;-71
2021/12/25 09:31:33;;;;;;;2.45;1.83;;;21.80;37.50;;;;;;5054689;28;20946;-71
2021/12/25 09:33:59;;;;;;;3.60;1.63;;;21.80;37.30;;;;;;5054813;28;20381;-70
2021/12/25 09:36:26;;;;;;;3.43;1.70;;;21.80;37.50;;;;;;5054700;28;20439;-70
2021/12/25 09:38:52;;;;;;;3.60;1.65;;;21.80;37.20;;;;;;5054440;28;20500;-70
2021/12/25 09:41:19;;;;;;;3.80;1.60;;;21.80;37.10;;;;;;5053821;28;20472;-70
2021/12/25 09:43:48;;;;;;;2.83;1.40;;;21.80;37.00;;;;;;5067059;28;20407;-70
2021/12/25 09:46:20;;;;;;;2.35;1.35;;;21.80;36.90;;;;;;5072780;28;20384;-70
2021/12/25 09:48:47;;;;;;;2.28;1.60;;;21.80;36.90;;;;;;5072726;28;20383;-71
2021/12/25 09:51:14;;;;;;;1.92;1.27;;;21.70;36.90;;;;;;5071279;28;20474;-71
2021/12/25 09:53:40;;;;;;;2.70;1.30;;;21.70;36.90;;;;;;5043874;28;20404;-70
2021/12/25 09:56:06;;;;;;;2.20;1.40;;;21.50;37.10;;;;;;5071739;28;20427;-70
2021/12/25 09:58:32;;;;;;;1.92;1.20;;;21.50;37.10;;;;;;5053325;28;20411;-70
2021/12/25 10:00:59;;;;;;;2.00;1.10;;;21.50;37.60;;;;;;5053017;28;20436;-70
2021/12/25 10:03:41;;;;;;;2.28;1.30;;;21.50;37.30;;;;;;5053436;28;20392;-71
2021/12/25 10:06:07;;;;;;;2.45;1.45;;;21.50;37.30;;;;;;5071622;28;20386;-70
2021/12/25 10:08:41;;;;;;;1.90;1.50;;;21.60;37.20;;;;;;5071934;28;20403;-70
2021/12/25 10:11:06;;;;;;;2.45;1.20;;;21.60;36.90;;;;;;5070997;28;20391;-70
2021/12/25 10:13:40;;;;;;;1.90;1.20;;;21.60;36.70;;;;;;5073939;28;20408;-77
2021/12/25 10:16:31;;;;;;;1.63;1.00;;;21.60;36.90;;;;;;5071928;28;20391;-70
2021/12/25 10:19:18;;;;;;;1.73;1.20;;;21.60;36.60;;;;;;5072058;28;20415;-71
2021/12/25 10:21:44;;;;;;;1.73;1.08;;;21.60;36.50;;;;;;5071400;28;20384;-70
2021/12/25 10:24:18;;;;;;;2.40;1.10;;;21.70;36.50;;;;;;5061916;28;20415;-70
2021/12/25 10:26:48;;;;;;;2.25;1.23;;;21.60;36.40;;;;;;5061374;28;20762;-70
2021/12/25 10:29:25;;;;;;;2.20;1.10;;;21.60;36.40;;;;;;5066421;28;20740;-70
2021/12/25 10:31:54;;;;;;;1.33;0.93;;;21.70;36.40;;;;;;5071175;28;20958;-73
2021/12/25 10:34:23;;;;;;;1.63;1.10;;;21.70;36.40;;;;;;5071277;28;20403;-70
2021/12/25 10:36:50;;;;;;;2.13;1.00;;;21.60;36.30;;;;;;5080635;28;20987;-72
2021/12/25 10:39:21;;;;;;;2.42;1.00;;;21.60;36.20;;;;;;5072059;28;20411;-71
2021/12/25 10:41:54;;;;;;;1.83;1.10;;;21.70;36.20;;;;;;5069701;28;20399;-70
2021/12/25 10:44:29;;;;;;;2.38;1.30;;;21.60;36.20;;;;;;5072387;28;20408;-71
2021/12/25 10:46:56;;;;;;;1.80;1.00;;;21.70;36.60;;;;;;5069576;28;20471;-71
2021/12/25 10:49:27;;;;;;;2.55;1.00;;;21.70;36.70;;;;;;5053721;28;20424;-76
2021/12/25 10:51:55;;;;;;;2.10;1.07;;;21.70;37.30;;;;;;5053839;28;20467;-71
2021/12/25 10:54:39;;;;;;;4.32;1.10;;;21.70;37.40;;;;;;5068037;28;20402;-73
2021/12/25 10:57:06;;;;;;;3.50;1.08;;;21.70;37.80;;;;;;5069770;28;20449;-71
2021/12/25 10:59:46;;;;;;;2.78;1.10;;;21.80;38.10;;;;;;5051721;28;20422;-71
2021/12/25 11:02:44;;;;;;;3.72;1.10;;;21.80;38.30;;;;;;5049933;28;20408;-68
2021/12/25 11:05:54;;;;;;;2.85;1.20;;;21.80;39.10;;;;;;5070031;28;21074;-71
2021/12/25 11:08:22;;;;;;;1.83;1.00;;;21.90;40.60;;;;;;5052222;28;20445;-71
2021/12/25 11:10:50;;;;;;;2.10;1.15;;;21.80;40.50;;;;;;5070454;28;20400;-70
2021/12/25 11:13:22;;;;;;;2.42;1.10;;;21.80;40.00;;;;;;5066122;28;20483;-71
2021/12/25 11:15:49;;;;;;;2.83;1.10;;;21.80;39.50;;;;;;5057447;28;20443;-71
2021/12/25 11:18:17;;;;;;;1.52;1.00;;;21.80;40.10;;;;;;5068300;28;20415;-71
2021/12/25 11:20:45;;;;;;;1.98;1.17;;;21.80;40.50;;;;;;5069071;28;20387;-70
2021/12/25 11:23:12;;;;;;;2.03;0.90;;;21.90;39.70;;;;;;5065914;28;20912;-70
2021/12/25 11:25:41;;;;;;;1.70;1.00;;;21.90;40.10;;;;;;5066859;28;20455;-71
2021/12/25 11:28:10;;;;;;;2.50;1.02;;;21.90;39.60;;;;;;5069658;28;20391;-71
2021/12/25 11:30:39;;;;;;;2.15;1.00;;;21.80;39.20;;;;;;5070310;28;20773;-71
2021/12/25 11:33:05;;;;;;;1.90;1.10;;;21.90;39.20;;;;;;5070499;28;20456;-72
2021/12/25 11:35:34;;;;;;;2.83;1.00;;;21.80;38.90;;;;;;5070777;28;20458;-70
2021/12/25 11:38:03;;;;;;;1.97;1.00;;;21.80;38.40;;;;;;5059859;28;20435;-74
2021/12/25 11:40:34;;;;;;;3.13;1.00;;;21.80;38.20;;;;;;5068987;28;20388;-71
2021/12/25 11:43:03;;;;;;;3.25;1.10;;;21.80;38.40;;;;;;5070577;28;20437;-70
2021/12/25 11:45:36;;;;;;;2.47;1.20;;;21.80;38.70;;;;;;5063833;28;20484;-73
2021/12/25 11:48:13;;;;;;;1.80;1.10;;;21.80;38.50;;;;;;5049298;28;20461;-73
2021/12/25 11:50:42;;;;;;;2.20;1.10;;;21.80;38.40;;;;;;5084798;28;20387;-78
2021/12/25 11:53:26;;;;;;;1.40;1.10;;;21.70;38.20;;;;;;5053964;28;20380;-75
2021/12/25 11:58:41;;;;;;;3.30;1.60;;;21.70;37.60;;;;;;5072267;28;20422;-69
2021/12/25 12:01:35;;;;;;;2.58;1.30;;;21.70;37.70;;;;;;5071646;28;20384;-68
2021/12/25 12:04:14;;;;;;;3.10;1.27;;;21.70;37.50;;;;;;5072467;28;20395;-68
2021/12/25 12:06:45;;;;;;;6.07;1.50;;;21.60;37.50;;;;;;5053799;28;20441;-68
2021/12/25 12:09:21;;;;;;;6.13;1.40;;;21.60;37.50;;;;;;5071369;28;20391;-68
2021/12/25 12:11:50;;;;;;;3.30;1.58;;;21.60;37.50;;;;;;5054908;28;20383;-68
2021/12/25 12:14:18;;;;;;;3.67;1.42;;;21.60;37.40;;;;;;5054572;28;20479;-68
2021/12/25 12:16:48;;;;;;;3.03;1.30;;;21.60;37.30;;;;;;5053700;28;20426;-69
2021/12/25 12:19:38;;;;;;;2.90;1.70;;;21.50;37.30;;;;;;5072038;28;20407;-68
2021/12/25 12:22:27;;;;;;;3.25;1.42;;;21.50;37.10;;;;;;5071756;28;20395;-68
2021/12/25 12:27:49;;;;;;;4.13;1.50;;;21.50;37.10;;;;;;5071906;28;20495;-68
2021/12/25 12:30:34;;;;;;;5.40;1.50;;;21.50;37.10;;;;;;5053901;28;20454;-68
2021/12/25 12:33:21;;;;;;;4.30;1.30;;;21.50;37.00;;;;;;5071420;28;20479;-69
2021/12/25 12:35:57;;;;;;;3.83;1.40;;;21.50;37.00;;;;;;5057485;28;20402;-68
2021/12/25 12:38:42;;;;;;;2.47;1.20;;;21.50;37.00;;;;;;5067084;28;20424;-69
2021/12/25 12:41:15;;;;;;;2.65;1.40;;;21.50;37.00;;;;;;5071100;28;20380;-68
2021/12/25 12:43:50;;;;;;;2.70;1.60;;;21.50;37.00;;;;;;5071260;28;20481;-68
2021/12/25 12:46:16;;;;;;;3.70;1.70;;;21.50;36.90;;;;;;5071486;28;20384;-68
2021/12/25 12:49:08;;;;;;;3.53;1.33;;;21.50;36.90;;;;;;5053135;28;20387;-68
2021/12/25 12:51:35;;;;;;;2.15;1.35;;;21.50;36.90;;;;;;5053371;28;20380;-68
2021/12/25 12:54:01;;;;;;;3.20;1.50;;;21.50;36.90;;;;;;5071672;28;20394;-68
2021/12/25 12:56:27;;;;;;;2.25;1.40;;;21.50;36.90;;;;;;5072012;28;20388;-68
2021/12/25 12:58:54;;;;;;;2.90;1.65;;;21.50;36.90;;;;;;5071317;28;20411;-68
2021/12/25 13:01:21;;;;;;;2.22;1.60;;;21.50;36.90;;;;;;5052575;28;20876;-68
2021/12/25 13:03:47;;;;;;;2.47;1.58;;;21.50;36.90;;;;;;5071349;28;20403;-69
2021/12/25 13:06:15;;;;;;;2.17;1.42;;;21.40;36.80;;;;;;5071396;28;20384;-68
2021/12/25 13:08:43;;;;;;;2.70;1.40;;;21.30;36.90;;;;;;5053342;28;20395;-68
2021/12/25 13:11:22;;;;;;;1.90;1.30;;;21.20;37.10;;;;;;5070892;28;20399;-68
2021/12/25 13:13:53;;;;;;;2.90;1.45;;;21.20;37.10;;;;;;5053601;28;20729;-68
2021/12/25 13:16:23;;;;;;;2.97;1.60;;;21.20;37.20;;;;;;5053307;28;20475;-75
2021/12/25 13:18:53;;;;;;;2.45;1.50;;;21.20;37.30;;;;;;5071348;28;20464;-69
2021/12/25 13:21:22;;;;;;;2.88;1.40;;;21.20;37.20;;;;;;5052766;28;20388;-68
2021/12/25 13:23:53;;;;;;;2.22;1.50;;;21.10;37.30;;;;;;5071147;28;20434;-68
2021/12/25 13:26:31;;;;;;;2.20;1.50;;;21.10;37.30;;;;;;5053168;28;20388;-68
2021/12/25 13:28:59;;;;;;;2.60;1.60;;;21.00;37.30;;;;;;5070976;28;20391;-68
2021/12/25 13:31:27;;;;;;;2.35;1.50;;;21.00;37.40;;;;;;5053101;28;20387;-69
2021/12/25 13:33:58;;;;;;;2.20;1.48;;;21.00;37.30;;;;;;5071195;28;20380;-69
2021/12/25 13:36:28;;;;;;;2.65;1.50;;;21.00;37.30;;;;;;5052856;28;20395;-69
2021/12/25 13:38:55;;;;;;;2.40;1.42;;;21.00;37.50;;;;;;5052866;28;20418;-68
2021/12/25 13:41:28;;;;;;;1.70;1.20;;;21.00;37.50;;;;;;5070277;28;20391;-68
2021/12/25 13:44:09;;;;;;;2.20;1.40;;;20.90;37.50;;;;;;5070698;28;20411;-68
2021/12/25 13:46:48;;;;;;;2.05;1.40;;;20.90;37.70;;;;;;5052802;28;20384;-69
2021/12/25 13:49:28;;;;;;;1.95;1.25;;;20.90;37.60;;;;;;5044138;28;20895;-68
2021/12/25 13:51:54;;;;;;;2.00;1.20;;;20.90;37.50;;;;;;5052081;28;20380;-69
2021/12/25 13:54:21;;;;;;;2.22;1.40;;;20.90;37.60;;;;;;5070364;28;20384;-68
2021/12/25 13:56:49;;;;;;;2.33;1.40;;;20.80;37.60;;;;;;5052663;28;20391;-69
2021/12/25 13:59:15;;;;;;;1.80;1.20;;;20.80;37.60;;;;;;5052809;28;20416;-69
2021/12/25 14:01:41;;;;;;;1.75;1.10;;;20.80;37.70;;;;;;5073869;28;20864;-68
2021/12/25 14:04:12;;;;;;;2.03;1.05;;;20.90;37.70;;;;;;5056170;28;20403;-68
2021/12/25 14:06:39;;;;;;;1.60;1.15;;;20.90;37.70;;;;;;5059615;28;20384;-70
2021/12/25 14:09:06;;;;;;;1.85;1.23;;;20.80;37.70;;;;;;5071430;28;20768;-69
2021/12/25 14:11:34;;;;;;;2.20;1.20;;;20.80;37.70;;;;;;5072742;28;20786;-69
2021/12/25 14:14:05;;;;;;;2.13;1.20;;;20.70;38.00;;;;;;5046297;28;20834;-76